• Join FlightAware (Why Join?)
  • Login
  • US Flag 
08:37AM EDT


 

Airport Tracker/Info


-or-


 

Live Flight TrackerFlight Track Log ✈ N960DL ✈ 07-May-2013 ✈ KJFK - KMIA

Flight Track Log - Related Links

Times and Time Zones

All times are in EDT time to prevent confusion due to time zone crossing. See the N960DL flight status page for this flight to view local times or setup timezone preferences in your user account.

Time Position Orientation Groundspeed Altitude Reporting Facility
EDT Latitude Longitude Course Direction KTS MPH feet Rate Location/Type
08:36AM 40.6500 -73.8333 201° Southwest 184 212 1,200  Level New York TRACON
08:38AM 40.5247 -73.9628 218° Southwest 278 320 7,400 2,820 Climbing New York Center
08:39AM 40.2477 -74.0481 211° Southwest  Level FlightAware Approximate
08:39AM 40.4503 -74.0192 210° Southwest 284 327 10,300  Level New York Center
08:40AM 40.1519 -74.1226 211° Southwest  Level FlightAware Approximate
08:40AM 40.3742 -74.0619 203° Southwest 316 364 12,200  Level New York Center
08:41AM 40.0567 -74.1966 201° Southwest  Level FlightAware Approximate
08:41AM 40.2661 -74.1194 202° Southwest 363 418 14,400  Level New York Center
08:42AM 40.1625 -74.1742 202° Southwest 393 452 17,100 2,220 Climbing New York Center
08:43AM 40.0600 -74.2281 202° Southwest 394 453 19,000 1,860 Climbing Washington Center
08:44AM 39.9567 -74.3058 210° Southwest 409 471 21,100 1,800 Climbing Washington Center
08:45AM 39.8492 -74.4050 215° Southwest 424 488 22,700 1,800 Climbing Washington Center
08:46AM 39.7525 -74.5200 222° Southwest 450 518 24,700 2,160 Climbing Washington Center
08:47AM 39.6681 -74.6319 226° Southwest 455 524 27,000 2,100 Climbing Washington Center
08:48AM 39.5814 -74.7433 225° Southwest 450 518 29,000 1,680 Climbing Washington Center
08:49AM 39.4944 -74.8575 225° Southwest 445 512 30,500 1,560 Climbing Washington Center
08:50AM 39.4139 -74.9656 226° Southwest 434 499 32,100 1,500 Climbing Washington Center
08:51AM 39.3331 -75.0711 225° Southwest 434 499 33,500 900 Climbing Washington Center
08:52AM 39.2375 -75.1442 211° Southwest 411 473 34,000 240 Climbing Washington Center
08:53AM 39.1314 -75.1822 196° South 399 459 34,000  Level Washington Center
08:54AM 39.0211 -75.2256 197° South 405 466 34,000  Level Washington Center
08:55AM 38.9128 -75.2689 197° South 410 472 34,000  Level Washington Center
08:56AM 38.8108 -75.3172 200° South 410 472 34,000  Level Washington Center
08:57AM 38.7047 -75.3656 200° South 404 465 34,000  Level Washington Center
08:58AM 38.5983 -75.4083 197° South 404 465 34,000 -60 Level Washington Center
08:59AM 38.4900 -75.4511 197° South 404 465 33,900  Descending Washington Center
09:00AM 38.3900 -75.5017 202° Southwest 404 465 34,000  Climbing Washington Center
09:01AM 38.2900 -75.5414 197° South 404 465 34,000  Level Washington Center
09:02AM 38.1878 -75.5944 202° Southwest 409 471 34,000  Level Washington Center
09:03AM 38.0897 -75.6497 204° Southwest 403 464 34,000  Level Washington Center
09:04AM 37.9894 -75.7103 205° Southwest 398 458 34,000  Level Washington Center
09:05AM 37.8872 -75.7628 202° Southwest 398 458 34,000  Level Washington Center
09:06AM 37.7831 -75.8203 204° Southwest 398 458 34,000  Level Washington Center
09:07AM 37.6806 -75.8725 202° Southwest 398 458 34,000  Level Washington Center
09:08AM 37.5783 -75.9247 202° Southwest 398 458 34,000  Level Washington Center
09:09AM 37.4758 -75.9817 204° Southwest 398 458 34,000  Level Washington Center
09:10AM 37.3736 -76.0361 203° Southwest 398 458 34,000  Level Washington Center
09:11AM 37.2711 -76.0903 203° Southwest 398 458 34,000  Level Washington Center
09:12AM 37.1686 -76.1444 203° Southwest 398 458 34,000  Level Washington Center
09:13AM 37.0642 -76.1931 200° South 398 458 34,000  Level Washington Center
09:14AM 36.9617 -76.2494 204° Southwest 398 458 34,000  Level Washington Center
09:15AM 36.8569 -76.3031 202° Southwest 398 458 34,000  Level Washington Center
09:16AM 36.7503 -76.3567 202° Southwest 398 458 34,000  Level Washington Center
09:17AM 36.6497 -76.4100 203° Southwest 398 458 34,000  Level Washington Center
09:18AM 36.5472 -76.4606 202° Southwest 398 458 34,000  Level Washington Center
09:19AM 36.4447 -76.5136 203° Southwest 398 458 34,000  Level Washington Center
09:20AM 36.3419 -76.5642 202° Southwest 398 458 34,000  Level Washington Center
09:21AM 36.2433 -76.6169 203° Southwest 398 458 34,000  Level Washington Center
09:22AM 36.1450 -76.6672 202° Southwest 398 458 34,000  Level Washington Center
09:23AM 36.0486 -76.7147 202° Southwest 393 452 34,000  Level Washington Center
09:24AM 35.9500 -76.7647 202° Southwest 393 452 34,000  Level Washington Center
09:25AM 35.8514 -76.8169 203° Southwest 393 452 34,000  Level Washington Center
09:26AM 35.7508 -76.8642 201° Southwest 393 452 34,100 300 Climbing Washington Center
09:27AM 35.6522 -76.9161 203° Southwest 393 452 34,600 600 Climbing Washington Center
09:28AM 35.5514 -76.9656 202° Southwest 399 459 35,400 660 Climbing Washington Center
09:29AM 35.4547 -77.0175 204° Southwest 392 451 36,000 300 Climbing Washington Center
09:30AM 35.3522 -77.0564 197° South 392 451 36,000  Level Washington Center
09:31AM 35.2472 -77.0950 197° South 392 451 36,000  Level Washington Center
09:32AM 35.1425 -77.1339 197° South 392 451 36,000  Level Washington Center
09:33AM 35.0356 -77.1750 197° South 392 451 36,000  Level Washington Center
09:34AM 34.9350 -77.2111 196° South 392 451 36,000  Level Washington Center
09:35AM 34.8175 -77.2542 197° South 392 451 36,000  Level Washington Center
09:36AM 34.7231 -77.2928 199° South 397 457 36,000  Level Washington Center
09:37AM 34.6183 -77.3308 197° South 402 463 36,000  Level Washington Center
09:38AM 34.5111 -77.3689 196° South 402 463 36,000  Level Washington Center
09:39AM 34.4042 -77.4094 197° South 402 463 36,000  Level Washington Center
09:40AM 34.2994 -77.4447 196° South 402 463 36,000  Level Washington Center
09:43AM 34.0667 -77.5308 197° South 397 457 36,100  Climbing Jacksonville Center
09:44AM 33.9619 -77.5672 196° South 391 450 36,000 -60 Descending Jacksonville Center
09:45AM 33.8592 -77.6033 196° South 391 450 36,000  Level Jacksonville Center
09:46AM 33.7561 -77.6394 196° South 391 450 36,000  Level Jacksonville Center
09:47AM 33.6492 -77.6758 196° South 391 450 36,000  Level Jacksonville Center
09:48AM 33.5467 -77.7144 197° South 391 450 36,000  Level Jacksonville Center
09:49AM 33.4375 -77.7506 195° South 396 456 36,000  Level Jacksonville Center
09:50AM 33.3344 -77.7864 196° South 396 456 36,000  Level Jacksonville Center
09:51AM 33.2294 -77.8222 196° South 390 449 36,000  Level Jacksonville Center
09:52AM 33.1286 -77.8578 196° South 390 449 36,000  Level Jacksonville Center
09:53AM 33.0258 -77.8931 196° South 390 449 36,000  Level Jacksonville Center
09:54AM 32.9269 -77.9233 194° South 390 449 36,000  Level Jacksonville Center
09:55AM 32.8300 -77.9583 197° South 380 437 36,000  Level Jacksonville Center
09:56AM 32.7294 -77.9961 198° South 370 426 36,000  Level Jacksonville Center
09:57AM 32.6303 -78.0261 194° South 370 426 36,000  Level Jacksonville Center
09:58AM 32.5314 -78.0583 195° South 370 426 36,000 -60 Level Jacksonville Center
09:59AM 32.4325 -78.0933 197° South 370 426 35,900  Descending Jacksonville Center
10:00AM 32.3356 -78.1253 196° South 370 426 36,000  Climbing Jacksonville Center
10:01AM 32.2367 -78.1575 195° South 370 426 36,000  Level Jacksonville Center
10:02AM 32.1397 -78.1894 196° South 375 432 36,000  Level Jacksonville Center
10:03AM 32.0389 -78.2267 197° South 375 432 36,000  Level Jacksonville Center
10:04AM 31.9381 -78.2683 199° South 375 432 36,000  Level Jacksonville Center
10:05AM 31.8433 -78.3000 196° South 375 432 36,000  Level Jacksonville Center
10:06AM 31.7483 -78.3317 196° South 370 426 36,000  Level Jacksonville Center
10:07AM 31.6492 -78.3608 194° South 370 426 36,000  Level Jacksonville Center
10:08AM 31.5525 -78.3972 198° South 370 426 36,000  Level Jacksonville Center
10:09AM 31.4514 -78.4314 196° South 375 432 36,000  Level Jacksonville Center
10:10AM 31.3522 -78.4628 195° South 375 432 36,000  Level Jacksonville Center
10:11AM 31.2550 -78.4917 194° South 369 425 36,000  Level Jacksonville Center
10:12AM 31.1519 -78.5281 197° South 374 430 36,000  Level Jacksonville Center
10:13AM 31.0672 -78.5539 195° South 365 420 36,000  Level Jacksonville Center
10:14AM 30.9478 -78.5958 197° South 383 441 36,000  Level Jacksonville Center
10:16AM 30.6897 -78.6858 197° South 376 433 36,000  Level Miami Center
10:17AM 30.5850 -78.7106 191° South 381 438 36,000  Level Miami Center
10:18AM 30.4786 -78.7278 188° South 381 438 36,000  Level Miami Center
10:19AM 30.3803 -78.7478 190° South 371 427 36,000  Level Miami Center
10:20AM 30.2758 -78.7653 188° South 376 433 36,000  Level Miami Center
10:21AM 30.1653 -78.7847 189° South 374 430 36,000  Level Miami Center
10:22AM 30.0711 -78.8047 190° South 369 425 36,000  Level Miami Center
10:23AM 29.9664 -78.8386 196° South 369 425 36,000  Level Miami Center
10:24AM 29.8639 -78.8608 191° South 375 432 36,000  Level Miami Center
10:25AM 29.7656 -78.8828 191° South 376 433 36,000  Level Miami Center
10:26AM 29.6592 -78.8975 187° South 376 433 36,000  Level Miami Center
10:27AM 29.5525 -78.9147 188° South 376 433 36,000  Level Miami Center
10:28AM 29.4542 -78.9367 191° South 371 427 36,000  Level Miami Center
10:29AM 29.3494 -78.9561 189° South 371 427 36,000  Level Miami Center
10:30AM 29.2492 -78.9803 192° South 376 433 36,000  Level Miami Center
10:31AM 29.1486 -79.0019 191° South 376 433 36,000  Level Miami Center
10:32AM 29.0461 -79.0214 189° South 371 427 36,000  Level Miami Center
10:33AM 28.9436 -79.0431 190° South 376 433 36,000  Level Miami Center
10:34AM 28.8369 -79.0600 188° South 376 433 36,000  Level Miami Center
10:35AM 28.7572 -79.0797 192° South 376 433 36,000  Level Miami Center
10:36AM 28.6442 -79.0989 188° South 376 433 36,000  Level Miami Center
10:37AM 28.5394 -79.1181 189° South 376 433 36,000  Level Miami Center
10:38AM 28.4389 -79.1419 192° South 376 433 36,000  Level Miami Center
10:39AM 28.3322 -79.1608 189° South 376 433 36,000  Level Miami Center
10:40AM 28.2297 -79.1847 192° South 376 433 36,000  Level Miami Center
10:41AM 28.1228 -79.2039 189° South 381 438 36,000  Level Miami Center
10:42AM 28.0203 -79.2253 190° South 381 438 36,000 -60 Level Miami Center
10:43AM 27.9156 -79.2467 190° South 381 438 35,900 -1,260 Descending Miami Center
10:44AM 27.8003 -79.2700 190° South 381 438 33,500 -2,100 Descending Miami Center
10:45AM 27.6872 -79.2933 190° South 398 458 31,800 -1,140 Descending Miami Center
10:46AM 27.5864 -79.3147 191° South 412 474 31,300 -960 Descending Miami Center
10:47AM 27.4714 -79.3356 189° South 417 480 29,900 -1,800 Descending Miami Center
10:48AM 27.3456 -79.3608 190° South 422 486 27,700 -2,400 Descending Miami Center
10:49AM 27.2325 -79.3842 190° South 416 479 25,200 -1,860 Descending Miami Center
10:50AM 27.1192 -79.4097 191° South 416 479 24,000 -600 Descending Miami Center
10:51AM 27.0247 -79.4381 195° South 395 455 24,000  Level Miami Center
10:52AM 26.9156 -79.4728 196° South 395 455 24,000 -480 Level Miami Center
10:53AM 26.7958 -79.5050 194° South 402 463 23,100 -1,800 Descending Miami Center
10:54AM 26.6992 -79.5356 196° South 401 461 20,400 -2,940 Descending Miami Center
10:55AM 26.5961 -79.5819 202° Southwest 372 428 17,500 -3,000 Descending Miami Center
10:56AM 26.5197 -79.6383 213° Southwest 372 428 14,400 -2,880 Descending Miami Center
10:57AM 26.4981 -79.6725 235° Southwest 329 379 13,700 -1,320 Descending Miami Center
10:57AM 26.4658 -79.7275 237° Southwest 327 376 13,100 -720 Descending Miami Center
10:58AM 26.4528 -79.7503 237° Southwest 286 329 13,000 -120 Descending Miami Center
10:58AM 26.4269 -79.7939 237° Southwest 303 349 13,000  Level Miami Center
10:59AM 26.4094 -79.8306 242° Southwest 280 322 13,000  Level Miami Center
10:59AM 26.3814 -79.8761 236° Southwest 292 336 13,000  Level Miami Center
11:00AM 26.3322 -79.9281 223° Southwest 286 329 13,000  Level Miami Center
11:01AM 26.3044 -79.9622 228° Southwest 284 327 13,000 -300 Level Miami Center
11:01AM 26.2600 -79.9819 202° Southwest 286 329 12,700 -840 Descending Miami Center
11:02AM 26.2244 -79.9811 179° South 303 349 12,200 -1,500 Descending Miami Center
11:02AM 26.1872 -79.9731 169° South 279 321 11,200 -1,200 Descending Miami Center
11:03AM 26.1433 -79.9697 176° South 306 352 11,000 -300 Descending Miami Center
11:03AM 26.1039 -79.9639 172° South 286 329 10,900  Descending Miami Center
11:04AM 26.0581 -79.9581 173° South 302 348 11,000 -720 Climbing Miami Center
11:04AM 26.0206 -79.9525 172° South 298 343 10,200 -1,800 Descending Miami Center
11:05AM 25.9642 -79.9489 177° South 291 335 9,000 -1,380 Descending Miami Center
11:06AM 25.8933 -79.9400 174° South 225 259 8,100 -1,500 Descending Miami Center
11:07AM 25.8328 -79.9383 179° South 215 247 6,000 -1,920 Descending Miami Center
11:08AM 25.8125 -80.0003 250° West 206 237 4,200 -1,440 Descending Miami Center
11:09AM 25.8117 -80.0442 269° West 168 193 3,300 -660 Descending Miami Center
11:10AM 25.8083 -80.0972 266° West 154 177 3,000 -300 Descending Miami Center